sensor_id;sensor_type;location;lat;lon;timestamp;pressure;altitude;pressure_sealevel;temperature;humidity
67029;BME280;53934;52.142;11.738;2022-12-18T00:01:56;102695.16;;;-5.25;91.35
67029;BME280;53934;52.142;11.738;2022-12-18T00:04:25;102688.78;;;-5.91;93.70
67029;BME280;53934;52.142;11.738;2022-12-18T00:06:53;102696.03;;;-5.44;92.86
67029;BME280;53934;52.142;11.738;2022-12-18T00:09:20;102690.91;;;-5.44;93.21
67029;BME280;53934;52.142;11.738;2022-12-18T00:11:46;102688.50;;;-5.01;90.43
67029;BME280;53934;52.142;11.738;2022-12-18T00:14:13;102689.16;;;-5.07;90.34
67029;BME280;53934;52.142;11.738;2022-12-18T00:16:43;102691.41;;;-5.32;91.15
67029;BME280;53934;52.142;11.738;2022-12-18T00:19:10;102698.69;;;-5.03;90.08
67029;BME280;53934;52.142;11.738;2022-12-18T00:21:40;102709.72;;;-5.61;91.43
67029;BME280;53934;52.142;11.738;2022-12-18T00:24:08;102699.03;;;-5.53;92.57
67029;BME280;53934;52.142;11.738;2022-12-18T00:26:35;102692.97;;;-5.35;91.79
67029;BME280;53934;52.142;11.738;2022-12-18T00:29:05;102698.50;;;-5.46;92.95
67029;BME280;53934;52.142;11.738;2022-12-18T00:31:31;102694.31;;;-5.63;92.59
67029;BME280;53934;52.142;11.738;2022-12-18T00:33:58;102688.00;;;-5.52;93.64
67029;BME280;53934;52.142;11.738;2022-12-18T00:36:26;102680.63;;;-5.06;91.48
67029;BME280;53934;52.142;11.738;2022-12-18T00:38:54;102688.59;;;-5.19;91.85
67029;BME280;53934;52.142;11.738;2022-12-18T00:41:24;102693.06;;;-5.34;92.13
67029;BME280;53934;52.142;11.738;2022-12-18T00:44:10;102699.47;;;-5.44;92.85
67029;BME280;53934;52.142;11.738;2022-12-18T00:46:36;102697.25;;;-5.36;92.27
67029;BME280;53934;52.142;11.738;2022-12-18T00:49:03;102692.16;;;-5.92;94.62
67029;BME280;53934;52.142;11.738;2022-12-18T00:51:30;102699.31;;;-6.20;96.47
67029;BME280;53934;52.142;11.738;2022-12-18T00:53:57;102700.84;;;-5.50;95.79
67029;BME280;53934;52.142;11.738;2022-12-18T00:56:24;102694.72;;;-4.75;90.66
67029;BME280;53934;52.142;11.738;2022-12-18T00:58:51;102696.72;;;-4.89;90.63
67029;BME280;53934;52.142;11.738;2022-12-18T01:01:18;102701.66;;;-5.32;90.84
67029;BME280;53934;52.142;11.738;2022-12-18T01:03:45;102705.50;;;-5.22;92.08
67029;BME280;53934;52.142;11.738;2022-12-18T01:06:13;102699.84;;;-5.15;90.73
67029;BME280;53934;52.142;11.738;2022-12-18T01:08:39;102716.16;;;-4.73;89.23
67029;BME280;53934;52.142;11.738;2022-12-18T01:11:07;102715.94;;;-5.18;88.98
67029;BME280;53934;52.142;11.738;2022-12-18T01:13:35;102722.91;;;-5.52;91.87
67029;BME280;53934;52.142;11.738;2022-12-18T01:16:03;102721.06;;;-5.37;91.79
67029;BME280;53934;52.142;11.738;2022-12-18T01:18:29;102721.41;;;-4.89;88.69
67029;BME280;53934;52.142;11.738;2022-12-18T01:20:56;102709.53;;;-4.48;87.44
67029;BME280;53934;52.142;11.738;2022-12-18T01:23:22;102725.78;;;-4.87;87.17
67029;BME280;53934;52.142;11.738;2022-12-18T01:25:49;102717.19;;;-5.08;88.59
67029;BME280;53934;52.142;11.738;2022-12-18T01:28:15;102732.00;;;-5.59;91.42
67029;BME280;53934;52.142;11.738;2022-12-18T01:30:43;102739.00;;;-5.55;91.75
67029;BME280;53934;52.142;11.738;2022-12-18T01:33:09;102727.91;;;-5.17;91.38
67029;BME280;53934;52.142;11.738;2022-12-18T01:35:40;102743.63;;;-5.46;91.28
67029;BME280;53934;52.142;11.738;2022-12-18T01:38:07;102730.44;;;-5.17;90.29
67029;BME280;53934;52.142;11.738;2022-12-18T01:40:33;102741.91;;;-5.65;90.94
67029;BME280;53934;52.142;11.738;2022-12-18T01:43:00;102744.19;;;-5.90;93.53
67029;BME280;53934;52.142;11.738;2022-12-18T01:45:27;102739.81;;;-5.93;93.90
67029;BME280;53934;52.142;11.738;2022-12-18T01:47:59;102746.84;;;-5.69;93.97
67029;BME280;53934;52.142;11.738;2022-12-18T01:50:29;102760.97;;;-6.13;94.17
67029;BME280;53934;52.142;11.738;2022-12-18T01:52:58;102759.63;;;-5.69;92.97
67029;BME280;53934;52.142;11.738;2022-12-18T01:55:28;102752.44;;;-5.96;93.52
67029;BME280;53934;52.142;11.738;2022-12-18T01:57:58;102754.47;;;-5.88;93.93
67029;BME280;53934;52.142;11.738;2022-12-18T02:00:26;102754.41;;;-5.90;92.52
67029;BME280;53934;52.142;11.738;2022-12-18T02:02:53;102758.63;;;-6.26;95.49
67029;BME280;53934;52.142;11.738;2022-12-18T02:05:28;102766.25;;;-5.92;94.62
67029;BME280;53934;52.142;11.738;2022-12-18T02:08:01;102763.47;;;-5.97;94.00
67029;BME280;53934;52.142;11.738;2022-12-18T02:10:36;102761.97;;;-6.09;95.15
67029;BME280;53934;52.142;11.738;2022-12-18T02:13:12;102764.16;;;-5.81;94.26
67029;BME280;53934;52.142;11.738;2022-12-18T02:15:44;102755.31;;;-5.70;92.67
67029;BME280;53934;52.142;11.738;2022-12-18T02:18:19;102753.50;;;-5.73;92.53
67029;BME280;53934;52.142;11.738;2022-12-18T02:20:52;102756.88;;;-5.35;90.73
67029;BME280;53934;52.142;11.738;2022-12-18T02:23:34;102749.72;;;-5.25;90.26
67029;BME280;53934;52.142;11.738;2022-12-18T02:26:12;102739.00;;;-4.97;89.07
67029;BME280;53934;52.142;11.738;2022-12-18T02:28:46;102747.31;;;-5.22;89.54
67029;BME280;53934;52.142;11.738;2022-12-18T02:31:18;102743.03;;;-5.02;89.48
67029;BME280;53934;52.142;11.738;2022-12-18T02:33:49;102736.38;;;-4.99;88.46
67029;BME280;53934;52.142;11.738;2022-12-18T02:36:17;102738.50;;;-4.69;86.85
67029;BME280;53934;52.142;11.738;2022-12-18T02:38:45;102732.63;;;-4.67;85.72
67029;BME280;53934;52.142;11.738;2022-12-18T02:41:15;102739.25;;;-5.49;89.36
67029;BME280;53934;52.142;11.738;2022-12-18T02:43:46;102731.63;;;-5.29;89.24
67029;BME280;53934;52.142;11.738;2022-12-18T02:46:30;102729.63;;;-5.54;89.82
67029;BME280;53934;52.142;11.738;2022-12-18T02:49:04;102724.06;;;-5.46;89.76
67029;BME280;53934;52.142;11.738;2022-12-18T02:51:38;102731.22;;;-5.75;90.44
67029;BME280;53934;52.142;11.738;2022-12-18T02:54:10;102730.06;;;-5.45;90.49
67029;BME280;53934;52.142;11.738;2022-12-18T02:56:46;102731.41;;;-5.15;88.77
67029;BME280;53934;52.142;11.738;2022-12-18T02:59:17;102732.09;;;-5.19;87.52
67029;BME280;53934;52.142;11.738;2022-12-18T03:01:52;102738.81;;;-5.40;88.93
67029;BME280;53934;52.142;11.738;2022-12-18T03:04:25;102740.00;;;-5.13;88.64
67029;BME280;53934;52.142;11.738;2022-12-18T03:06:55;102752.44;;;-5.76;90.22
67029;BME280;53934;52.142;11.738;2022-12-18T03:09:27;102743.31;;;-5.91;92.04
67029;BME280;53934;52.142;11.738;2022-12-18T03:12:06;102743.84;;;-5.42;91.04
67029;BME280;53934;52.142;11.738;2022-12-18T03:14:52;102759.63;;;-5.69;91.20
67029;BME280;53934;52.142;11.738;2022-12-18T03:17:23;102746.63;;;-5.18;88.37
67029;BME280;53934;52.142;11.738;2022-12-18T03:19:52;102758.22;;;-6.00;92.25
67029;BME280;53934;52.142;11.738;2022-12-18T03:22:22;102759.38;;;-5.56;92.04
67029;BME280;53934;52.142;11.738;2022-12-18T03:24:50;102769.97;;;-5.29;89.92
67029;BME280;53934;52.142;11.738;2022-12-18T03:27:20;102774.56;;;-5.96;92.71
67029;BME280;53934;52.142;11.738;2022-12-18T03:29:52;102772.19;;;-6.27;94.20
67029;BME280;53934;52.142;11.738;2022-12-18T03:32:25;102774.75;;;-6.27;94.98
67029;BME280;53934;52.142;11.738;2022-12-18T03:34:57;102770.28;;;-5.78;93.08
67029;BME280;53934;52.142;11.738;2022-12-18T03:37:25;102770.41;;;-5.38;92.00
67029;BME280;53934;52.142;11.738;2022-12-18T03:39:51;102763.81;;;-5.89;93.03
67029;BME280;53934;52.142;11.738;2022-12-18T03:42:24;102756.28;;;-5.86;93.06
67029;BME280;53934;52.142;11.738;2022-12-18T03:44:57;102761.19;;;-5.91;93.76
67029;BME280;53934;52.142;11.738;2022-12-18T03:47:27;102761.88;;;-5.75;94.05
67029;BME280;53934;52.142;11.738;2022-12-18T03:49:58;102759.59;;;-6.06;95.02
67029;BME280;53934;52.142;11.738;2022-12-18T03:52:30;102762.31;;;-6.03;94.87
67029;BME280;53934;52.142;11.738;2022-12-18T03:54:59;102770.69;;;-5.32;93.19
67029;BME280;53934;52.142;11.738;2022-12-18T03:57:29;102765.44;;;-5.72;92.93
67029;BME280;53934;52.142;11.738;2022-12-18T04:00:00;102763.53;;;-5.39;93.08
67029;BME280;53934;52.142;11.738;2022-12-18T04:02:29;102760.31;;;-5.91;94.31
67029;BME280;53934;52.142;11.738;2022-12-18T04:04:59;102759.97;;;-5.99;95.53
67029;BME280;53934;52.142;11.738;2022-12-18T04:07:27;102762.06;;;-5.90;95.36
67029;BME280;53934;52.142;11.738;2022-12-18T04:09:56;102759.06;;;-6.17;95.51
67029;BME280;53934;52.142;11.738;2022-12-18T04:12:24;102752.66;;;-6.09;96.29
67029;BME280;53934;52.142;11.738;2022-12-18T04:14:52;102756.34;;;-5.84;94.60
67029;BME280;53934;52.142;11.738;2022-12-18T04:17:19;102750.75;;;-5.58;93.30
67029;BME280;53934;52.142;11.738;2022-12-18T04:19:45;102748.47;;;-5.52;93.42
67029;BME280;53934;52.142;11.738;2022-12-18T04:22:12;102745.00;;;-6.09;95.23
67029;BME280;53934;52.142;11.738;2022-12-18T04:24:38;102749.84;;;-5.78;95.22
67029;BME280;53934;52.142;11.738;2022-12-18T04:27:05;102753.63;;;-5.33;94.10
67029;BME280;53934;52.142;11.738;2022-12-18T04:29:31;102754.03;;;-5.61;92.96
67029;BME280;53934;52.142;11.738;2022-12-18T04:31:59;102747.72;;;-5.50;91.95
67029;BME280;53934;52.142;11.738;2022-12-18T04:34:26;102746.81;;;-5.32;92.30
67029;BME280;53934;52.142;11.738;2022-12-18T04:36:52;102749.31;;;-5.34;91.73
67029;BME280;53934;52.142;11.738;2022-12-18T04:39:19;102753.63;;;-5.70;94.78
67029;BME280;53934;52.142;11.738;2022-12-18T04:41:45;102760.88;;;-5.23;93.49
67029;BME280;53934;52.142;11.738;2022-12-18T04:44:11;102753.88;;;-5.27;92.84
67029;BME280;53934;52.142;11.738;2022-12-18T04:46:38;102749.44;;;-4.93;90.53
67029;BME280;53934;52.142;11.738;2022-12-18T04:49:06;102748.38;;;-5.36;92.16
67029;BME280;53934;52.142;11.738;2022-12-18T04:51:32;102754.34;;;-5.35;92.58
67029;BME280;53934;52.142;11.738;2022-12-18T04:53:59;102770.88;;;-5.47;93.35
67029;BME280;53934;52.142;11.738;2022-12-18T04:56:25;102779.38;;;-5.65;94.63
67029;BME280;53934;52.142;11.738;2022-12-18T04:58:51;102782.50;;;-5.53;94.03
67029;BME280;53934;52.142;11.738;2022-12-18T05:01:18;102777.03;;;-5.05;92.55
67029;BME280;53934;52.142;11.738;2022-12-18T05:03:45;102775.72;;;-4.76;89.96
67029;BME280;53934;52.142;11.738;2022-12-18T05:06:13;102778.13;;;-5.19;91.32
67029;BME280;53934;52.142;11.738;2022-12-18T05:08:39;102770.06;;;-4.69;89.78
67029;BME280;53934;52.142;11.738;2022-12-18T05:11:07;102791.41;;;-5.45;92.45
67029;BME280;53934;52.142;11.738;2022-12-18T05:13:34;102792.09;;;-5.30;92.69
67029;BME280;53934;52.142;11.738;2022-12-18T05:16:01;102788.44;;;-5.35;92.06
67029;BME280;53934;52.142;11.738;2022-12-18T05:18:28;102782.78;;;-5.84;94.86
67029;BME280;53934;52.142;11.738;2022-12-18T05:20:55;102786.72;;;-5.36;93.26
67029;BME280;53934;52.142;11.738;2022-12-18T05:23:24;102778.09;;;-5.38;93.47
67029;BME280;53934;52.142;11.738;2022-12-18T05:25:52;102780.03;;;-5.52;94.24
67029;BME280;53934;52.142;11.738;2022-12-18T05:28:18;102767.63;;;-5.99;95.26
67029;BME280;53934;52.142;11.738;2022-12-18T05:30:48;102768.00;;;-5.72;95.13
67029;BME280;53934;52.142;11.738;2022-12-18T05:33:14;102774.03;;;-5.52;95.70
67029;BME280;53934;52.142;11.738;2022-12-18T05:35:41;102781.75;;;-5.33;95.16
67029;BME280;53934;52.142;11.738;2022-12-18T05:38:07;102773.19;;;-4.95;92.28
67029;BME280;53934;52.142;11.738;2022-12-18T05:40:35;102777.66;;;-5.10;92.80
67029;BME280;53934;52.142;11.738;2022-12-18T05:43:02;102776.28;;;-5.02;92.23
67029;BME280;53934;52.142;11.738;2022-12-18T05:45:28;102767.97;;;-5.17;91.71
67029;BME280;53934;52.142;11.738;2022-12-18T05:47:56;102775.56;;;-5.19;92.40
67029;BME280;53934;52.142;11.738;2022-12-18T05:50:22;102770.44;;;-4.80;91.02
67029;BME280;53934;52.142;11.738;2022-12-18T05:52:49;102782.00;;;-5.27;92.59
67029;BME280;53934;52.142;11.738;2022-12-18T05:55:15;102780.00;;;-5.15;92.29
67029;BME280;53934;52.142;11.738;2022-12-18T05:57:43;102793.91;;;-5.64;94.57
67029;BME280;53934;52.142;11.738;2022-12-18T06:00:11;102798.44;;;-5.22;93.40
67029;BME280;53934;52.142;11.738;2022-12-18T06:02:37;102805.44;;;-4.99;92.81
67029;BME280;53934;52.142;11.738;2022-12-18T06:05:04;102809.38;;;-5.07;92.49
67029;BME280;53934;52.142;11.738;2022-12-18T06:07:31;102800.88;;;-5.25;93.78
67029;BME280;53934;52.142;11.738;2022-12-18T06:09:57;102791.84;;;-5.36;92.75
67029;BME280;53934;52.142;11.738;2022-12-18T06:12:24;102797.09;;;-5.33;93.69
67029;BME280;53934;52.142;11.738;2022-12-18T06:14:52;102792.53;;;-4.62;91.35
67029;BME280;53934;52.142;11.738;2022-12-18T06:17:18;102801.94;;;-5.20;92.81
67029;BME280;53934;52.142;11.738;2022-12-18T06:19:44;102806.50;;;-5.13;92.31
67029;BME280;53934;52.142;11.738;2022-12-18T06:22:11;102807.72;;;-5.24;92.86
67029;BME280;53934;52.142;11.738;2022-12-18T06:24:37;102803.06;;;-5.69;95.42
67029;BME280;53934;52.142;11.738;2022-12-18T06:27:04;102799.41;;;-5.37;94.08
67029;BME280;53934;52.142;11.738;2022-12-18T06:29:30;102803.59;;;-5.39;93.77
67029;BME280;53934;52.142;11.738;2022-12-18T06:31:58;102797.78;;;-5.18;93.77
67029;BME280;53934;52.142;11.738;2022-12-18T06:34:25;102791.03;;;-4.97;92.57
67029;BME280;53934;52.142;11.738;2022-12-18T06:36:51;102783.47;;;-4.55;91.14
67029;BME280;53934;52.142;11.738;2022-12-18T06:39:18;102785.97;;;-4.95;90.37
67029;BME280;53934;52.142;11.738;2022-12-18T06:41:44;102794.94;;;-5.05;91.36
67029;BME280;53934;52.142;11.738;2022-12-18T06:44:11;102802.25;;;-5.31;93.53
67029;BME280;53934;52.142;11.738;2022-12-18T06:46:37;102800.13;;;-5.77;95.35
67029;BME280;53934;52.142;11.738;2022-12-18T06:49:05;102812.13;;;-5.39;95.27
67029;BME280;53934;52.142;11.738;2022-12-18T06:51:32;102804.78;;;-5.14;93.34
67029;BME280;53934;52.142;11.738;2022-12-18T06:53:58;102812.28;;;-5.54;94.38
67029;BME280;53934;52.142;11.738;2022-12-18T06:56:24;102806.63;;;-5.10;92.36
67029;BME280;53934;52.142;11.738;2022-12-18T06:58:51;102798.16;;;-5.09;92.01
67029;BME280;53934;52.142;11.738;2022-12-18T07:01:18;102809.88;;;-4.95;90.46
67029;BME280;53934;52.142;11.738;2022-12-18T07:03:44;102811.53;;;-5.33;91.19
67029;BME280;53934;52.142;11.738;2022-12-18T07:06:17;102826.13;;;-5.31;91.00
67029;BME280;53934;52.142;11.738;2022-12-18T07:08:43;102830.84;;;-5.75;92.22
67029;BME280;53934;52.142;11.738;2022-12-18T07:11:10;102836.88;;;-5.93;94.10
67029;BME280;53934;52.142;11.738;2022-12-18T07:13:37;102833.72;;;-5.69;92.13
67029;BME280;53934;52.142;11.738;2022-12-18T07:16:06;102830.66;;;-5.98;94.09
67029;BME280;53934;52.142;11.738;2022-12-18T07:18:32;102832.41;;;-5.97;94.31
67029;BME280;53934;52.142;11.738;2022-12-18T07:21:02;102834.34;;;-5.38;91.97
67029;BME280;53934;52.142;11.738;2022-12-18T07:23:31;102847.66;;;-5.08;90.94
67029;BME280;53934;52.142;11.738;2022-12-18T07:26:00;102858.50;;;-5.14;89.60
67029;BME280;53934;52.142;11.738;2022-12-18T07:28:27;102856.75;;;-4.57;87.22
67029;BME280;53934;52.142;11.738;2022-12-18T07:30:53;102850.81;;;-4.16;85.05
67029;BME280;53934;52.142;11.738;2022-12-18T07:33:20;102863.63;;;-4.56;84.71
67029;BME280;53934;52.142;11.738;2022-12-18T07:35:46;102851.97;;;-4.50;85.74
67029;BME280;53934;52.142;11.738;2022-12-18T07:38:13;102856.59;;;-4.22;83.65
67029;BME280;53934;52.142;11.738;2022-12-18T07:40:40;102853.56;;;-4.32;82.59
67029;BME280;53934;52.142;11.738;2022-12-18T07:43:07;102864.75;;;-4.69;83.87
67029;BME280;53934;52.142;11.738;2022-12-18T07:45:33;102864.75;;;-4.30;82.41
67029;BME280;53934;52.142;11.738;2022-12-18T07:48:00;102875.31;;;-4.23;81.63
67029;BME280;53934;52.142;11.738;2022-12-18T07:50:26;102870.03;;;-4.66;82.15
67029;BME280;53934;52.142;11.738;2022-12-18T07:52:53;102859.72;;;-4.48;81.41
67029;BME280;53934;52.142;11.738;2022-12-18T07:55:19;102860.81;;;-4.22;79.82
67029;BME280;53934;52.142;11.738;2022-12-18T07:57:47;102857.44;;;-4.80;81.29
67029;BME280;53934;52.142;11.738;2022-12-18T08:00:14;102868.13;;;-4.89;81.70
67029;BME280;53934;52.142;11.738;2022-12-18T08:02:41;102870.81;;;-5.05;82.72
67029;BME280;53934;52.142;11.738;2022-12-18T08:05:08;102879.38;;;-4.85;81.79
67029;BME280;53934;52.142;11.738;2022-12-18T08:07:35;102885.56;;;-5.00;81.26
67029;BME280;53934;52.142;11.738;2022-12-18T08:10:01;102884.34;;;-5.43;83.40
67029;BME280;53934;52.142;11.738;2022-12-18T08:12:28;102893.09;;;-5.03;83.08
67029;BME280;53934;52.142;11.738;2022-12-18T08:14:55;102896.50;;;-4.84;81.36
67029;BME280;53934;52.142;11.738;2022-12-18T08:17:22;102891.97;;;-4.90;80.81
67029;BME280;53934;52.142;11.738;2022-12-18T08:19:48;102890.00;;;-5.50;83.36
67029;BME280;53934;52.142;11.738;2022-12-18T08:22:15;102895.41;;;-5.62;83.79
67029;BME280;53934;52.142;11.738;2022-12-18T08:24:41;102902.13;;;-5.46;82.70
67029;BME280;53934;52.142;11.738;2022-12-18T08:27:08;102902.25;;;-5.08;81.67
67029;BME280;53934;52.142;11.738;2022-12-18T08:29:34;102906.94;;;-5.34;82.32
67029;BME280;53934;52.142;11.738;2022-12-18T08:32:02;102909.19;;;-5.23;81.80
67029;BME280;53934;52.142;11.738;2022-12-18T08:34:28;102896.50;;;-5.02;81.98
67029;BME280;53934;52.142;11.738;2022-12-18T08:36:55;102895.75;;;-4.82;80.45
67029;BME280;53934;52.142;11.738;2022-12-18T08:39:21;102898.66;;;-5.11;81.15
67029;BME280;53934;52.142;11.738;2022-12-18T08:41:48;102901.59;;;-5.74;83.22
67029;BME280;53934;52.142;11.738;2022-12-18T08:44:28;102896.34;;;-5.77;83.91
67029;BME280;53934;52.142;11.738;2022-12-18T08:47:06;102897.41;;;-6.08;85.15
67029;BME280;53934;52.142;11.738;2022-12-18T08:49:33;102893.50;;;-5.48;84.92
67029;BME280;53934;52.142;11.738;2022-12-18T08:51:59;102894.22;;;-5.68;85.17
67029;BME280;53934;52.142;11.738;2022-12-18T08:54:28;102892.91;;;-5.43;84.10
67029;BME280;53934;52.142;11.738;2022-12-18T08:56:54;102888.69;;;-5.60;84.62
67029;BME280;53934;52.142;11.738;2022-12-18T08:59:21;102896.19;;;-5.80;85.45
67029;BME280;53934;52.142;11.738;2022-12-18T09:01:48;102899.22;;;-5.36;85.59
67029;BME280;53934;52.142;11.738;2022-12-18T09:04:16;102884.56;;;-5.03;83.54
67029;BME280;53934;52.142;11.738;2022-12-18T09:06:43;102891.63;;;-4.98;83.75
67029;BME280;53934;52.142;11.738;2022-12-18T09:09:09;102883.97;;;-4.00;81.21
67029;BME280;53934;52.142;11.738;2022-12-18T09:11:36;102882.13;;;-4.43;79.92
67029;BME280;53934;52.142;11.738;2022-12-18T09:14:02;102875.59;;;-4.36;80.60
67029;BME280;53934;52.142;11.738;2022-12-18T09:16:29;102888.31;;;-4.18;78.61
67029;BME280;53934;52.142;11.738;2022-12-18T09:18:57;102878.44;;;-4.30;80.21
67029;BME280;53934;52.142;11.738;2022-12-18T09:21:28;102873.47;;;-3.85;80.27
67029;BME280;53934;52.142;11.738;2022-12-18T09:23:55;102872.22;;;-3.74;78.61
67029;BME280;53934;52.142;11.738;2022-12-18T09:26:24;102866.09;;;-2.90;78.27
67029;BME280;53934;52.142;11.738;2022-12-18T09:28:51;102865.50;;;-3.06;76.51
67029;BME280;53934;52.142;11.738;2022-12-18T09:31:19;102867.25;;;-2.82;75.90
67029;BME280;53934;52.142;11.738;2022-12-18T09:33:46;102858.88;;;-3.23;76.13
67029;BME280;53934;52.142;11.738;2022-12-18T09:36:15;102857.97;;;-2.55;74.98
67029;BME280;53934;52.142;11.738;2022-12-18T09:38:43;102848.81;;;-1.71;73.47
67029;BME280;53934;52.142;11.738;2022-12-18T09:41:30;102845.03;;;-0.99;70.56
67029;BME280;53934;52.142;11.738;2022-12-18T09:44:02;102829.66;;;-0.66;68.09
67029;BME280;53934;52.142;11.738;2022-12-18T09:46:32;102828.06;;;0.05;64.74
67029;BME280;53934;52.142;11.738;2022-12-18T09:49:02;102826.97;;;-0.05;64.80
67029;BME280;53934;52.142;11.738;2022-12-18T09:51:33;102831.56;;;-0.28;65.01
67029;BME280;53934;52.142;11.738;2022-12-18T09:54:06;102825.25;;;-0.39;66.05
67029;BME280;53934;52.142;11.738;2022-12-18T09:56:35;102830.75;;;-0.25;64.31
67029;BME280;53934;52.142;11.738;2022-12-18T09:59:04;102819.75;;;-0.18;63.17
67029;BME280;53934;52.142;11.738;2022-12-18T10:01:32;102824.78;;;-0.87;63.93
67029;BME280;53934;52.142;11.738;2022-12-18T10:03:59;102816.75;;;-0.35;66.15
67029;BME280;53934;52.142;11.738;2022-12-18T10:06:31;102814.88;;;-0.40;64.41
67029;BME280;53934;52.142;11.738;2022-12-18T10:09:07;102812.97;;;0.57;62.26
67029;BME280;53934;52.142;11.738;2022-12-18T10:11:43;102822.78;;;0.34;61.86
67029;BME280;53934;52.142;11.738;2022-12-18T10:14:18;102824.47;;;1.12;59.60
67029;BME280;53934;52.142;11.738;2022-12-18T10:16:55;102810.09;;;0.45;58.57
67029;BME280;53934;52.142;11.738;2022-12-18T10:19:35;102800.00;;;-0.19;62.77
67029;BME280;53934;52.142;11.738;2022-12-18T10:22:11;102800.22;;;0.26;62.23
67029;BME280;53934;52.142;11.738;2022-12-18T10:24:48;102799.84;;;0.46;62.58
67029;BME280;53934;52.142;11.738;2022-12-18T10:27:23;102799.31;;;0.24;61.82
67029;BME280;53934;52.142;11.738;2022-12-18T10:29:50;102807.75;;;0.94;59.88
67029;BME280;53934;52.142;11.738;2022-12-18T10:32:19;102806.72;;;0.85;59.03
67029;BME280;53934;52.142;11.738;2022-12-18T10:34:47;102795.06;;;1.52;58.46
67029;BME280;53934;52.142;11.738;2022-12-18T10:37:16;102796.06;;;0.70;59.51
67029;BME280;53934;52.142;11.738;2022-12-18T10:39:45;102801.19;;;0.31;60.55
67029;BME280;53934;52.142;11.738;2022-12-18T10:42:16;102778.94;;;1.17;59.53
67029;BME280;53934;52.142;11.738;2022-12-18T10:44:44;102790.91;;;1.60;58.78
67029;BME280;53934;52.142;11.738;2022-12-18T10:47:12;102788.50;;;1.70;57.33
67029;BME280;53934;52.142;11.738;2022-12-18T10:49:47;102801.84;;;1.93;56.38
67029;BME280;53934;52.142;11.738;2022-12-18T10:52:15;102796.00;;;1.54;57.94
67029;BME280;53934;52.142;11.738;2022-12-18T10:54:49;102794.41;;;1.63;57.72
67029;BME280;53934;52.142;11.738;2022-12-18T10:57:28;102795.34;;;1.65;58.45
67029;BME280;53934;52.142;11.738;2022-12-18T10:59:57;102794.69;;;2.31;56.27
67029;BME280;53934;52.142;11.738;2022-12-18T11:02:27;102799.69;;;1.66;56.84
67029;BME280;53934;52.142;11.738;2022-12-18T11:04:54;102814.03;;;2.54;56.05
67029;BME280;53934;52.142;11.738;2022-12-18T11:07:20;102825.91;;;2.41;55.15
67029;BME280;53934;52.142;11.738;2022-12-18T11:10:01;102827.53;;;0.94;59.29
67029;BME280;53934;52.142;11.738;2022-12-18T11:12:29;102827.09;;;0.74;60.14
67029;BME280;53934;52.142;11.738;2022-12-18T11:14:55;102822.97;;;0.06;64.17
67029;BME280;53934;52.142;11.738;2022-12-18T11:17:27;102819.72;;;0.51;64.42
67029;BME280;53934;52.142;11.738;2022-12-18T11:19:55;102825.94;;;0.99;60.79
67029;BME280;53934;52.142;11.738;2022-12-18T11:22:24;102831.31;;;1.10;59.52
67029;BME280;53934;52.142;11.738;2022-12-18T11:24:56;102824.97;;;-0.48;63.93
67029;BME280;53934;52.142;11.738;2022-12-18T11:27:25;102803.66;;;-0.10;66.41
67029;BME280;53934;52.142;11.738;2022-12-18T11:29:52;102801.69;;;-0.20;65.41
67029;BME280;53934;52.142;11.738;2022-12-18T11:32:31;102790.56;;;-0.17;66.17
67029;BME280;53934;52.142;11.738;2022-12-18T11:35:04;102793.72;;;-1.23;69.20
67029;BME280;53934;52.142;11.738;2022-12-18T11:37:35;102795.34;;;-0.32;67.53
67029;BME280;53934;52.142;11.738;2022-12-18T11:40:10;102789.38;;;-0.63;68.88
67029;BME280;53934;52.142;11.738;2022-12-18T11:42:41;102791.13;;;-0.62;68.42
67029;BME280;53934;52.142;11.738;2022-12-18T11:45:24;102797.41;;;-0.83;70.29
67029;BME280;53934;52.142;11.738;2022-12-18T11:47:56;102796.59;;;-1.69;71.28
67029;BME280;53934;52.142;11.738;2022-12-18T11:50:26;102771.53;;;-0.88;71.16
67029;BME280;53934;52.142;11.738;2022-12-18T11:52:54;102780.63;;;-1.01;71.20
67029;BME280;53934;52.142;11.738;2022-12-18T11:55:30;102800.03;;;-0.82;70.14
67029;BME280;53934;52.142;11.738;2022-12-18T11:58:05;102805.47;;;-0.71;70.28
67029;BME280;53934;52.142;11.738;2022-12-18T12:00:37;102800.09;;;-1.38;71.75
67029;BME280;53934;52.142;11.738;2022-12-18T12:03:38;102790.34;;;-2.29;74.19
67029;BME280;53934;52.142;11.738;2022-12-18T12:06:12;102776.84;;;-2.74;76.17
67029;BME280;53934;52.142;11.738;2022-12-18T12:08:51;102778.88;;;-2.15;76.85
67029;BME280;53934;52.142;11.738;2022-12-18T12:11:27;102777.13;;;-1.61;74.38
67029;BME280;53934;52.142;11.738;2022-12-18T12:14:12;102781.13;;;-1.42;72.63
67029;BME280;53934;52.142;11.738;2022-12-18T12:16:44;102775.16;;;-1.69;73.23
67029;BME280;53934;52.142;11.738;2022-12-18T12:19:24;102791.50;;;-2.21;76.22
67029;BME280;53934;52.142;11.738;2022-12-18T12:21:58;102786.22;;;-1.99;75.56
67029;BME280;53934;52.142;11.738;2022-12-18T12:24:37;102791.66;;;-2.41;75.61
67029;BME280;53934;52.142;11.738;2022-12-18T12:27:13;102790.00;;;-2.39;76.29
67029;BME280;53934;52.142;11.738;2022-12-18T12:29:50;102776.59;;;-2.31;75.66
67029;BME280;53934;52.142;11.738;2022-12-18T12:32:35;102769.50;;;-2.13;75.37
67029;BME280;53934;52.142;11.738;2022-12-18T12:35:15;102770.06;;;-2.47;76.02
67029;BME280;53934;52.142;11.738;2022-12-18T12:37:58;102765.84;;;-2.19;76.54
67029;BME280;53934;52.142;11.738;2022-12-18T12:40:28;102760.59;;;-1.96;75.67
67029;BME280;53934;52.142;11.738;2022-12-18T12:43:01;102758.97;;;-1.93;75.37
67029;BME280;53934;52.142;11.738;2022-12-18T12:45:41;102762.16;;;-2.53;76.73
67029;BME280;53934;52.142;11.738;2022-12-18T12:48:16;102746.34;;;-2.65;78.15
67029;BME280;53934;52.142;11.738;2022-12-18T12:50:44;102742.78;;;-2.43;78.36
67029;BME280;53934;52.142;11.738;2022-12-18T12:53:21;102748.75;;;-2.19;76.46